createdAt,value
2022-10-07T00:00:27.157Z,101556.33
2022-10-07T00:03:20.343Z,101556.67
2022-10-07T00:06:09.804Z,101559.15
2022-10-07T00:08:43.435Z,101555.19
2022-10-07T00:11:18.856Z,101560.41
2022-10-07T00:13:54.310Z,101561.02
2022-10-07T00:16:32.427Z,101556.81
2022-10-07T00:19:25.102Z,101550.92
2022-10-07T00:22:50.374Z,101555.12
2022-10-07T00:25:24.390Z,101554.10
2022-10-07T00:27:57.751Z,101555.48
2022-10-07T00:30:32.236Z,101558.31
2022-10-07T00:33:04.785Z,101558.20
2022-10-07T00:35:37.454Z,101558.14
2022-10-07T00:38:08.330Z,101557.89
2022-10-07T00:40:39.742Z,101553.84
2022-10-07T00:43:27.023Z,101552.02
2022-10-07T00:46:13.722Z,101556.05
2022-10-07T00:48:48.475Z,101549.77
2022-10-07T00:51:21.646Z,101547.45
2022-10-07T00:53:54.810Z,101548.08
2022-10-07T00:56:28.663Z,101552.73
2022-10-07T00:59:00.098Z,101552.92
2022-10-07T01:01:35.349Z,101552.36
2022-10-07T01:04:06.447Z,101547.29
2022-10-07T01:07:10.493Z,101545.08
2022-10-07T01:09:43.283Z,101542.23
2022-10-07T01:12:42.632Z,101541.27
2022-10-07T01:15:25.454Z,101540.98
2022-10-07T01:18:06.692Z,101540.36
2022-10-07T01:21:10.064Z,101541.63
2022-10-07T01:24:32.505Z,101541.33
2022-10-07T01:27:19.699Z,101545.27
2022-10-07T01:29:56.873Z,101541.92
2022-10-07T01:33:03.573Z,101541.39
2022-10-07T01:35:37.424Z,101538.85
2022-10-07T01:38:11.732Z,101540.08
2022-10-07T01:40:48.719Z,101540.39
2022-10-07T01:43:28.826Z,101544.62
2022-10-07T01:46:24.441Z,101544.27
2022-10-07T01:49:01.635Z,101542.95
2022-10-07T01:52:40.230Z,101543.48
2022-10-07T01:55:43.001Z,101541.42
2022-10-07T01:58:28.490Z,101530.23
2022-10-07T02:01:32.909Z,101529.71
2022-10-07T02:04:30.628Z,101530.36
2022-10-07T03:31:46.374Z,101502.11
2022-10-07T03:34:17.692Z,101503.15
2022-10-07T03:36:53.192Z,101503.60
2022-10-07T03:39:26.438Z,101503.59
2022-10-07T03:41:58.609Z,101502.55
2022-10-07T03:44:32.042Z,101500.94
2022-10-07T03:47:10.498Z,101497.87
2022-10-07T03:49:48.479Z,101500.52
2022-10-07T03:52:21.057Z,101498.88
2022-10-07T03:55:11.802Z,101505.23
2022-10-07T03:58:01.182Z,101506.20
2022-10-07T04:00:33.034Z,101502.83
2022-10-07T04:03:10.345Z,101502.05
2022-10-07T04:05:40.990Z,101502.30
2022-10-07T04:43:35.992Z,101488.63
2022-10-07T04:55:45.665Z,101483.37
2022-10-07T04:58:17.872Z,101488.13
2022-10-07T05:00:54.211Z,101484.13
2022-10-07T05:03:28.433Z,101482.14
2022-10-07T05:06:24.526Z,101480.46
2022-10-07T05:09:09.574Z,101480.02
2022-10-07T05:11:44.813Z,101479.38
2022-10-07T05:14:22.462Z,101472.72
2022-10-07T05:16:54.745Z,101469.31
2022-10-07T05:19:49.434Z,101466.15
2022-10-07T05:43:15.954Z,101464.55
2022-10-07T05:45:45.440Z,101465.27
2022-10-07T05:48:17.135Z,101468.67
2022-10-07T05:50:49.684Z,101469.81
2022-10-07T05:53:20.724Z,101472.09
2022-10-07T05:55:52.034Z,101469.62
2022-10-07T05:58:23.955Z,101470.73
2022-10-07T06:01:03.708Z,101470.16
2022-10-07T06:03:36.773Z,101474.80
2022-10-07T06:06:06.991Z,101470.78
2022-10-07T06:08:39.263Z,101475.39
2022-10-07T06:11:29.983Z,101473.77
2022-10-07T06:14:03.015Z,101474.15
2022-10-07T06:16:32.666Z,101472.18
2022-10-07T06:19:05.007Z,101473.38
2022-10-07T06:22:27.833Z,101478.59
2022-10-07T06:25:01.531Z,101476.70
2022-10-07T06:27:33.874Z,101477.18
2022-10-07T06:30:07.063Z,101477.98
2022-10-07T06:32:37.074Z,101478.77
2022-10-07T06:35:08.044Z,101480.55
2022-10-07T06:37:39.816Z,101480.52
2022-10-07T06:40:12.360Z,101477.71
2022-10-07T06:42:42.804Z,101476.11
2022-10-07T06:45:35.526Z,101475.30
2022-10-07T06:48:04.838Z,101477.49
2022-10-07T06:50:34.346Z,101474.02
2022-10-07T06:53:05.097Z,101477.05
2022-10-07T06:55:37.948Z,101475.25
2022-10-07T06:58:11.415Z,101478.61
2022-10-07T07:00:43.027Z,101476.09
2022-10-07T07:03:14.871Z,101476.07
2022-10-07T07:05:46.396Z,101477.75
2022-10-07T07:08:34.986Z,101477.70
2022-10-07T07:11:29.537Z,101475.74
2022-10-07T07:14:02.460Z,101471.70
2022-10-07T07:16:35.490Z,101474.29
2022-10-07T07:19:10.753Z,101474.76
2022-10-07T07:21:42.183Z,101470.65
2022-10-07T07:24:15.799Z,101467.80
2022-10-07T07:26:46.552Z,101468.04
2022-10-07T07:29:17.011Z,101469.79
2022-10-07T07:31:52.605Z,101470.23
2022-10-07T07:34:24.401Z,101473.37
2022-10-07T07:36:57.906Z,101472.98
2022-10-07T07:39:31.848Z,101477.86
2022-10-07T07:42:08.935Z,101474.02
2022-10-07T07:44:41.766Z,101473.67
2022-10-07T07:47:14.163Z,101477.91
2022-10-07T07:49:44.543Z,101476.65
2022-10-07T07:52:19.320Z,101476.91
2022-10-07T07:54:52.223Z,101477.11
2022-10-07T07:57:22.349Z,101476.30
2022-10-07T07:59:55.286Z,101477.27
2022-10-07T08:02:26.074Z,101476.88
2022-10-07T08:04:55.405Z,101473.93
2022-10-07T08:07:28.320Z,101468.06
2022-10-07T08:09:59.059Z,101468.46
2022-10-07T08:12:29.486Z,101466.92
2022-10-07T08:15:00.149Z,101468.13
2022-10-07T08:17:29.382Z,101468.33
2022-10-07T08:19:59.825Z,101461.45
2022-10-07T08:22:32.254Z,101461.44
2022-10-07T08:25:02.740Z,101459.75
2022-10-07T08:27:31.983Z,101456.48
2022-10-07T08:30:02.872Z,101452.27
2022-10-07T08:32:33.555Z,101449.10
2022-10-07T08:35:07.064Z,101444.61
2022-10-07T08:37:37.243Z,101442.39
2022-10-07T08:40:07.422Z,101439.31
2022-10-07T08:42:41.815Z,101441.00
2022-10-07T08:45:32.090Z,101442.19
2022-10-07T08:48:08.002Z,101432.11
2022-10-07T08:51:00.210Z,101429.45
2022-10-07T08:53:38.120Z,101424.98
2022-10-07T08:56:20.281Z,101427.17
2022-10-07T08:59:23.578Z,101426.35
2022-10-07T09:02:13.843Z,101421.84
2022-10-07T09:05:01.090Z,101418.83
2022-10-07T09:07:43.442Z,101419.70
2022-10-07T09:10:35.504Z,101418.73
2022-10-07T09:13:36.407Z,101417.85
2022-10-07T09:16:18.912Z,101417.67
2022-10-07T09:19:01.135Z,101416.42
2022-10-07T09:21:51.873Z,101411.55
2022-10-07T09:24:28.740Z,101411.30
2022-10-07T09:27:48.433Z,101404.83
2022-10-07T09:30:18.763Z,101404.16
2022-10-07T09:32:52.458Z,101397.64
2022-10-07T09:35:24.799Z,101400.03
2022-10-07T09:37:56.610Z,101395.42
2022-10-07T09:40:27.644Z,101391.42
2022-10-07T09:42:56.453Z,101383.71
2022-10-07T09:45:34.291Z,101379.71
2022-10-07T09:48:08.022Z,101375.69
2022-10-07T09:50:41.531Z,101376.09
2022-10-07T09:53:20.526Z,101368.41
2022-10-07T09:55:51.444Z,101369.38
2022-10-07T09:58:28.184Z,101367.02
2022-10-07T10:01:01.466Z,101365.98
2022-10-07T10:03:37.083Z,101357.21
2022-10-07T10:06:09.529Z,101356.41
2022-10-07T10:08:43.736Z,101350.63
2022-10-07T10:11:19.098Z,101350.54
2022-10-07T10:13:52.933Z,101342.73
2022-10-07T10:16:29.177Z,101340.81
2022-10-07T10:19:06.714Z,101342.14
2022-10-07T10:21:41.884Z,101340.86
2022-10-07T10:24:16.214Z,101343.36
2022-10-07T10:26:58.645Z,101343.30
2022-10-07T10:29:31.041Z,101333.54
2022-10-07T10:32:06.096Z,101325.13
2022-10-07T10:34:50.372Z,101328.00
2022-10-07T10:37:31.509Z,101328.91
2022-10-07T10:40:13.223Z,101318.76
2022-10-07T10:43:11.711Z,101314.30
2022-10-07T10:46:04.398Z,101316.29
2022-10-07T10:48:39.892Z,101305.58
2022-10-07T10:51:36.736Z,101304.64
2022-10-07T10:54:49.332Z,101303.14
2022-10-07T11:20:44.500Z,101252.44
2022-10-07T11:27:51.634Z,101242.10
2022-10-07T11:30:25.406Z,101240.02
2022-10-07T11:33:18.815Z,101243.20
2022-10-07T13:20:11.338Z,101053.36
2022-10-07T13:27:39.134Z,101041.11
2022-10-07T13:30:29.785Z,101035.70
2022-10-07T13:33:32.080Z,101026.39
2022-10-07T13:36:24.835Z,101027.23
2022-10-07T13:39:12.356Z,101021.04
2022-10-07T13:41:49.808Z,101010.23
2022-10-07T13:44:32.422Z,101007.05
2022-10-07T13:47:07.601Z,101004.89
2022-10-07T13:49:44.422Z,101002.73
2022-10-07T13:52:29.609Z,100994.95
2022-10-07T13:55:00.978Z,100991.46
2022-10-07T13:57:32.019Z,100993.58
2022-10-07T14:00:02.474Z,100989.95
2022-10-07T14:02:44.861Z,100985.09
2022-10-07T14:05:29.103Z,100980.73
2022-10-07T14:08:11.620Z,100977.77
2022-10-07T14:10:52.498Z,100974.95
2022-10-07T14:13:24.831Z,100971.14
2022-10-07T14:15:56.681Z,100967.86
2022-10-07T14:18:29.957Z,100963.76
2022-10-07T14:21:17.895Z,100965.27
2022-10-07T14:23:53.239Z,100960.09
2022-10-07T14:26:22.818Z,100957.12
2022-10-07T14:28:55.921Z,100957.45
2022-10-07T14:31:45.626Z,100952.69
2022-10-07T14:34:39.394Z,100949.50
2022-10-07T14:37:18.449Z,100946.27
2022-10-07T14:39:52.529Z,100939.35
2022-10-07T14:42:25.870Z,100932.85
2022-10-07T14:45:00.147Z,100926.82
2022-10-07T14:47:31.800Z,100924.11
2022-10-07T14:50:01.777Z,100920.30
2022-10-07T14:52:48.702Z,100915.82
2022-10-07T14:55:29.548Z,100912.48
2022-10-07T14:58:00.647Z,100907.36
2022-10-07T15:00:33.859Z,100901.26
2022-10-07T15:03:07.709Z,100897.65
2022-10-07T15:05:38.813Z,100894.11
2022-10-07T15:08:13.174Z,100893.19
2022-10-07T15:10:44.921Z,100886.29
2022-10-07T15:13:15.212Z,100888.63
2022-10-07T15:15:48.561Z,100886.60
2022-10-07T15:18:22.081Z,100884.02
2022-10-07T15:20:57.932Z,100877.60
2022-10-07T15:23:28.656Z,100872.72
2022-10-07T15:26:00.730Z,100870.38
2022-10-07T15:28:32.722Z,100867.77
2022-10-07T15:31:10.910Z,100863.77
2022-10-07T15:33:41.987Z,100861.13
2022-10-07T15:36:13.745Z,100859.94
2022-10-07T15:38:43.967Z,100855.47
2022-10-07T15:41:28.786Z,100855.45
2022-10-07T15:44:02.098Z,100854.91
2022-10-07T15:46:32.639Z,100849.50
2022-10-07T15:49:03.289Z,100849.47
2022-10-07T15:51:35.925Z,100849.29
2022-10-07T15:54:07.317Z,100846.79
2022-10-07T15:56:39.001Z,100847.46
2022-10-07T15:59:09.815Z,100845.56
2022-10-07T16:01:38.972Z,100845.80
2022-10-07T16:04:12.814Z,100842.40
2022-10-07T16:06:50.008Z,100835.80
2022-10-07T16:09:25.093Z,100834.02
2022-10-07T16:11:54.475Z,100833.45
2022-10-07T16:14:27.276Z,100831.44
2022-10-07T16:17:00.070Z,100831.06
2022-10-07T16:19:30.709Z,100825.78
2022-10-07T16:22:05.591Z,100821.89
2022-10-07T16:24:35.594Z,100819.67
2022-10-07T16:27:05.345Z,100823.23
2022-10-07T16:29:52.785Z,100817.92
2022-10-07T16:32:21.583Z,100812.35
2022-10-07T16:34:52.476Z,100807.97
2022-10-07T16:37:23.185Z,100804.80
2022-10-07T16:39:52.859Z,100801.66
2022-10-07T16:42:24.002Z,100801.41
2022-10-07T16:44:53.215Z,100805.58
2022-10-07T16:47:23.115Z,100800.98
2022-10-07T16:49:54.235Z,100798.33
2022-10-07T16:52:23.275Z,100798.35
2022-10-07T16:54:53.487Z,100800.23
2022-10-07T16:57:23.357Z,100796.73
2022-10-07T16:59:55.975Z,100795.61
2022-10-07T17:02:24.837Z,100793.22
2022-10-07T17:04:53.848Z,100788.08
2022-10-07T17:07:24.783Z,100788.55
2022-10-07T17:09:54.296Z,100787.34
2022-10-07T17:12:24.882Z,100787.61
2022-10-07T17:14:55.079Z,100782.64
2022-10-07T17:17:23.860Z,100782.27
2022-10-07T17:19:52.650Z,100784.98
2022-10-07T17:22:49.929Z,100779.84
2022-10-07T17:25:20.085Z,100780.08
2022-10-07T17:27:51.890Z,100775.15
2022-10-07T17:30:23.498Z,100772.84
2022-10-07T17:32:56.406Z,100774.03
2022-10-07T17:35:28.681Z,100773.50
2022-10-07T17:38:01.585Z,100770.77
2022-10-07T17:40:32.679Z,100768.13
2022-10-07T17:43:04.944Z,100766.55
2022-10-07T17:45:38.414Z,100767.14
2022-10-07T17:48:08.974Z,100764.29
2022-10-07T17:50:39.791Z,100761.48
2022-10-07T17:53:13.258Z,100759.50
2022-10-07T17:55:52.491Z,100757.41
2022-10-07T17:58:22.536Z,100754.77
2022-10-07T18:00:53.573Z,100753.33
2022-10-07T18:03:23.788Z,100749.66
2022-10-07T18:05:54.885Z,100749.66
2022-10-07T18:08:26.213Z,100745.52
2022-10-07T18:10:55.208Z,100739.52
2022-10-07T18:14:16.828Z,100737.03
2022-10-07T18:21:30.303Z,100725.42
2022-10-07T18:24:01.892Z,100723.77
2022-10-07T18:26:30.955Z,100725.61
2022-10-07T18:29:07.590Z,100725.61
2022-10-07T18:31:38.202Z,100720.18
2022-10-07T18:34:10.218Z,100716.77
2022-10-07T18:36:39.817Z,100709.35
2022-10-07T18:39:14.382Z,100707.05
2022-10-07T18:41:44.861Z,100707.46
2022-10-07T18:44:16.698Z,100700.90
2022-10-07T18:46:50.012Z,100700.61
2022-10-07T18:49:25.672Z,100697.36
2022-10-07T18:52:02.283Z,100693.37
2022-10-07T18:54:36.140Z,100692.34
2022-10-07T18:57:11.501Z,100686.34
2022-10-07T18:59:44.174Z,100684.05
2022-10-07T19:02:13.761Z,100682.77
2022-10-07T19:04:44.832Z,100683.05
2022-10-07T19:07:16.354Z,100683.88
2022-10-07T19:09:48.490Z,100684.29
2022-10-07T19:12:36.049Z,100682.05
2022-10-07T19:15:06.609Z,100682.44
2022-10-07T19:17:39.146Z,100682.80
2022-10-07T19:20:09.622Z,100679.89
2022-10-07T19:22:39.683Z,100676.30
2022-10-07T19:25:29.989Z,100671.94
2022-10-07T19:28:01.909Z,100671.20
2022-10-07T19:30:34.076Z,100669.83
2022-10-07T19:33:04.215Z,100670.98
2022-10-07T19:35:34.925Z,100668.79
2022-10-07T19:38:09.728Z,100662.82
2022-10-07T19:40:45.534Z,100665.59
2022-10-07T19:43:14.964Z,100667.64
2022-10-07T19:45:47.177Z,100665.73
2022-10-07T19:48:18.590Z,100660.41
2022-10-07T19:50:59.734Z,100656.60
2022-10-07T19:53:35.607Z,100655.14
2022-10-07T19:56:15.087Z,100659.10
2022-10-07T19:58:47.953Z,100653.42
2022-10-07T20:01:22.867Z,100651.80
2022-10-07T20:04:19.825Z,100649.80
2022-10-07T20:06:51.360Z,100647.27
2022-10-07T20:09:20.910Z,100646.36
2022-10-07T20:11:51.106Z,100645.35
2022-10-07T20:14:20.454Z,100644.53
2022-10-07T20:16:50.929Z,100640.43
2022-10-07T20:19:21.597Z,100636.85
2022-10-07T20:21:50.490Z,100636.98
2022-10-07T20:24:23.197Z,100634.98
2022-10-07T20:26:53.543Z,100634.34
2022-10-07T20:29:25.636Z,100633.41
2022-10-07T20:31:55.498Z,100630.66
2022-10-07T20:34:27.182Z,100623.51
2022-10-07T20:36:57.487Z,100622.27
2022-10-07T20:39:47.257Z,100621.15
2022-10-07T20:42:27.729Z,100615.91
2022-10-07T20:45:03.781Z,100612.50
2022-10-07T20:47:35.364Z,100606.21
2022-10-07T20:50:06.390Z,100604.68
2022-10-07T20:52:37.422Z,100601.96
2022-10-07T20:55:08.243Z,100602.56
2022-10-07T20:57:38.820Z,100601.70
2022-10-07T21:00:16.488Z,100600.02
2022-10-07T21:02:47.885Z,100596.62
2022-10-07T21:05:19.413Z,100596.63
2022-10-07T21:07:54.553Z,100593.84
2022-10-07T21:10:26.367Z,100587.71
2022-10-07T21:12:55.955Z,100583.50
2022-10-07T21:15:26.663Z,100584.48
2022-10-07T21:17:55.660Z,100579.52
2022-10-07T21:20:25.968Z,100577.33
2022-10-07T21:22:56.516Z,100576.18
2022-10-07T21:25:25.742Z,100576.48
2022-10-07T21:27:58.260Z,100568.62
2022-10-07T21:30:29.821Z,100569.90
2022-10-07T21:32:59.759Z,100569.88
2022-10-07T21:35:35.483Z,100567.01
2022-10-07T21:38:05.988Z,100566.27
2022-10-07T21:40:36.455Z,100562.99
2022-10-07T21:43:06.933Z,100558.98
2022-10-07T21:45:39.410Z,100555.63
2022-10-07T21:48:11.160Z,100556.19
2022-10-07T21:50:42.486Z,100551.73
2022-10-07T21:53:13.703Z,100551.91
2022-10-07T21:55:42.762Z,100551.70
2022-10-07T21:58:12.431Z,100545.70
2022-10-07T22:00:43.140Z,100538.20
2022-10-07T22:03:17.267Z,100533.56
2022-10-07T22:05:46.311Z,100533.11
2022-10-07T22:08:36.818Z,100527.36
2022-10-07T22:11:10.707Z,100526.86
2022-10-07T22:13:45.380Z,100522.80
2022-10-07T22:16:16.730Z,100517.73
2022-10-07T22:18:50.177Z,100511.09
2022-10-07T22:21:24.588Z,100504.50
2022-10-07T22:24:44.879Z,100500.63
2022-10-07T22:27:13.665Z,100492.33
2022-10-07T22:29:44.004Z,100486.15
2022-10-07T22:32:13.983Z,100479.38
2022-10-07T22:35:01.642Z,100476.95
2022-10-07T22:37:31.327Z,100472.75
2022-10-07T22:40:02.283Z,100475.08
2022-10-07T22:42:37.202Z,100468.52
2022-10-07T22:45:07.743Z,100464.06
2022-10-07T22:47:37.828Z,100465.33
2022-10-07T22:50:08.606Z,100463.36
2022-10-07T22:52:41.707Z,100461.60
2022-10-07T22:55:10.601Z,100459.98
2022-10-07T22:57:39.366Z,100454.91
2022-10-07T23:00:08.939Z,100452.20
2022-10-07T23:02:37.933Z,100452.14
2022-10-07T23:05:07.345Z,100453.24
2022-10-07T23:07:36.122Z,100451.13
2022-10-07T23:10:05.243Z,100448.20
2022-10-07T23:12:34.225Z,100448.47
2022-10-07T23:15:04.586Z,100442.70
2022-10-07T23:17:34.069Z,100441.27
2022-10-07T23:20:05.770Z,100437.23
2022-10-07T23:22:36.028Z,100430.46
2022-10-07T23:25:05.809Z,100430.15
2022-10-07T23:27:36.490Z,100425.55
2022-10-07T23:30:06.811Z,100422.90
2022-10-07T23:32:37.143Z,100416.82
2022-10-07T23:35:08.667Z,100414.19
2022-10-07T23:37:37.384Z,100412.23
2022-10-07T23:40:07.450Z,100412.95
2022-10-07T23:42:36.123Z,100405.93
2022-10-07T23:45:07.341Z,100402.27
2022-10-07T23:47:37.788Z,100395.23
2022-10-07T23:50:07.982Z,100399.15
2022-10-07T23:52:38.805Z,100403.55
2022-10-07T23:55:10.677Z,100394.81
2022-10-07T23:57:41.034Z,100391.61
